Rumford Point, Maine
Current Conditions -  °F | °C
As of 11:30 AM on Friday 24 Oct 2014 (Local Time) from KBML Reporting Station
Haze Haze  
Wind Chill: 41°   Ceiling: 1200
Heat Index: 45°   Visibility: 2.5mi
Dew Point: 43°   Wind: 7mph
Humidity: 93%   Direction: 340°NNW
Pressure: 29.75"   Gusts: NA
Location:  44.5488°N, 70.6285°W
Report Text: KBML 241530Z AUTO 34006KT 2 1/2SM BR BKN012 OVC017 07/06 A2975 RMK AO2 RAE11 P0000 T00720061
Loading
Personal Weather Stations






























Interactive Weather Map
Tropical Storm Tracking
New forecast layout! Learn more

10-Day Weather Forecast

Advertisements
Track Severe Weather on mobile